createdAt,value
2022-10-22T00:00:53.309Z,61.11
2022-10-22T00:03:19.685Z,60.96
2022-10-22T00:05:46.057Z,60.85
2022-10-22T00:08:12.421Z,61.06
2022-10-22T00:10:38.781Z,60.88
2022-10-22T00:13:05.158Z,61.07
2022-10-22T00:15:31.518Z,61.17
2022-10-22T00:17:57.876Z,60.96
2022-10-22T00:20:24.256Z,60.76
2022-10-22T00:25:36.985Z,60.97
2022-10-22T00:28:03.654Z,61.07
2022-10-22T00:30:30.019Z,60.64
2022-10-22T00:32:56.396Z,60.85
2022-10-22T00:35:22.771Z,60.95
2022-10-22T00:37:49.139Z,61.33
2022-10-22T00:40:15.497Z,60.92
2022-10-22T00:42:42.107Z,60.88
2022-10-22T00:45:08.759Z,60.99
2022-10-22T00:47:35.325Z,61.57
2022-10-22T00:50:01.695Z,61.11
2022-10-22T00:52:28.064Z,61.47
2022-10-22T00:54:54.430Z,61.25
2022-10-22T00:57:21.172Z,61.26
2022-10-22T00:59:47.535Z,61.11
2022-10-22T01:02:13.915Z,61.02
2022-10-22T01:04:40.269Z,61.24
2022-10-22T01:07:06.635Z,60.94
2022-10-22T01:09:32.996Z,60.80
2022-10-22T01:11:59.369Z,61.09
2022-10-22T01:14:25.741Z,61.26
2022-10-22T01:16:52.113Z,61.11
2022-10-22T01:19:18.467Z,61.01
2022-10-22T01:21:44.826Z,60.90
2022-10-22T01:24:11.206Z,60.91
2022-10-22T01:26:37.582Z,60.89
2022-10-22T01:29:03.952Z,60.84
2022-10-22T01:31:30.314Z,61.15
2022-10-22T01:33:56.680Z,60.51
2022-10-22T01:36:23.046Z,60.96
2022-10-22T01:38:49.410Z,61.81
2022-10-22T01:41:15.789Z,61.40
2022-10-22T01:43:42.152Z,61.05
2022-10-22T01:46:08.525Z,60.94
2022-10-22T01:48:34.878Z,60.90
2022-10-22T01:51:01.250Z,60.83
2022-10-22T01:53:27.647Z,60.82
2022-10-22T01:55:54.011Z,61.01
2022-10-22T01:58:20.386Z,60.87
2022-10-22T02:00:46.775Z,60.82
2022-10-22T02:03:13.157Z,60.62
2022-10-22T02:05:39.536Z,60.67
2022-10-22T02:08:05.892Z,60.84
2022-10-22T02:10:32.252Z,60.91
2022-10-22T02:12:58.618Z,61.42
2022-10-22T02:15:24.964Z,61.71
2022-10-22T02:17:51.335Z,61.17
2022-10-22T02:20:17.706Z,61.49
2022-10-22T02:22:44.068Z,61.94
2022-10-22T02:25:10.430Z,61.54
2022-10-22T02:27:36.816Z,61.53
2022-10-22T02:30:03.251Z,61.26
2022-10-22T02:32:29.645Z,61.41
2022-10-22T02:34:56.017Z,61.83
2022-10-22T02:37:22.376Z,61.42
2022-10-22T02:39:48.745Z,61.23
2022-10-22T02:42:15.099Z,61.07
2022-10-22T02:44:41.451Z,60.87
2022-10-22T02:47:07.838Z,61.45
2022-10-22T02:49:34.203Z,60.79
2022-10-22T02:52:00.575Z,60.79
2022-10-22T02:54:26.933Z,60.93
2022-10-22T02:56:53.299Z,61.72
2022-10-22T02:59:19.663Z,61.32
2022-10-22T03:01:46.037Z,61.57
2022-10-22T03:04:12.404Z,61.69
2022-10-22T03:06:38.770Z,61.34
2022-10-22T03:09:05.230Z,61.19
2022-10-22T03:11:31.613Z,61.96
2022-10-22T03:13:57.978Z,61.14
2022-10-22T03:16:24.354Z,61.50
2022-10-22T03:18:50.723Z,61.41
2022-10-22T03:21:17.082Z,61.79
2022-10-22T03:23:43.444Z,61.45
2022-10-22T03:26:09.816Z,61.76
2022-10-22T03:28:36.192Z,61.20
2022-10-22T03:31:02.550Z,61.06
2022-10-22T03:33:28.900Z,60.88
2022-10-22T03:35:55.270Z,61.04
2022-10-22T03:38:21.643Z,61.50
2022-10-22T03:40:48.015Z,61.33
2022-10-22T03:43:14.371Z,61.56
2022-10-22T03:45:40.726Z,61.82
2022-10-22T03:48:07.097Z,61.74
2022-10-22T03:50:33.466Z,61.94
2022-10-22T03:52:59.824Z,62.05
2022-10-22T03:55:26.185Z,61.53
2022-10-22T03:57:52.545Z,61.23
2022-10-22T04:00:18.900Z,61.78
2022-10-22T04:02:45.282Z,61.91
2022-10-22T04:05:11.660Z,61.89
2022-10-22T04:07:38.194Z,61.54
2022-10-22T04:10:04.742Z,61.47
2022-10-22T04:12:31.106Z,60.86
2022-10-22T04:14:57.470Z,61.03
2022-10-22T04:17:23.942Z,60.81
2022-10-22T04:19:50.299Z,61.03
2022-10-22T04:22:16.666Z,61.18
2022-10-22T04:24:43.076Z,61.17
2022-10-22T04:27:09.449Z,60.90
2022-10-22T04:29:35.814Z,61.33
2022-10-22T04:32:02.181Z,61.18
2022-10-22T04:34:28.532Z,61.27
2022-10-22T04:36:54.909Z,61.25
2022-10-22T04:39:21.281Z,61.81
2022-10-22T04:41:47.645Z,61.76
2022-10-22T04:44:16.862Z,61.81
2022-10-22T04:46:44.688Z,61.96
2022-10-22T04:49:11.054Z,61.92
2022-10-22T04:51:37.446Z,61.11
2022-10-22T04:54:03.823Z,61.74
2022-10-22T04:56:30.189Z,61.92
2022-10-22T04:58:56.556Z,61.85
2022-10-22T05:01:23.029Z,61.97
2022-10-22T05:03:49.467Z,61.30
2022-10-22T05:06:15.843Z,61.31
2022-10-22T05:08:42.292Z,60.93
2022-10-22T05:11:08.669Z,60.92
2022-10-22T05:13:35.024Z,61.53
2022-10-22T05:16:01.384Z,61.28
2022-10-22T05:18:27.745Z,61.65
2022-10-22T05:20:54.130Z,61.93
2022-10-22T05:23:20.487Z,61.65
2022-10-22T05:25:46.866Z,61.46
2022-10-22T05:28:13.233Z,61.68
2022-10-22T05:30:39.605Z,61.83
2022-10-22T05:33:05.964Z,61.20
2022-10-22T05:35:32.338Z,61.02
2022-10-22T05:37:58.720Z,61.70
2022-10-22T05:40:31.238Z,61.92
2022-10-22T05:42:57.894Z,61.26
2022-10-22T05:45:24.252Z,61.71
2022-10-22T05:47:50.619Z,61.21
2022-10-22T05:50:16.980Z,61.04
2022-10-22T05:52:43.542Z,60.68
2022-10-22T05:55:10.103Z,61.37
2022-10-22T05:57:36.461Z,60.82
2022-10-22T06:00:02.821Z,61.42
2022-10-22T06:02:29.265Z,60.60
2022-10-22T06:04:55.673Z,59.47
2022-10-22T06:07:22.058Z,60.03
2022-10-22T06:09:48.434Z,60.74
2022-10-22T06:12:14.813Z,61.36
2022-10-22T06:14:41.178Z,61.11
2022-10-22T06:17:07.542Z,61.11
2022-10-22T06:19:33.914Z,60.69
2022-10-22T06:22:00.324Z,60.86
2022-10-22T06:24:26.688Z,60.82
2022-10-22T06:26:53.041Z,60.51
2022-10-22T06:29:19.426Z,60.54
2022-10-22T06:31:45.788Z,60.42
2022-10-22T06:34:12.143Z,60.59
2022-10-22T06:36:38.646Z,60.48
2022-10-22T06:39:05.052Z,60.40
2022-10-22T06:41:31.426Z,60.34
2022-10-22T06:43:57.998Z,60.24
2022-10-22T06:46:24.519Z,60.35
2022-10-22T06:48:50.902Z,60.35
2022-10-22T06:51:17.262Z,60.91
2022-10-22T06:53:43.616Z,61.43
2022-10-22T06:56:09.981Z,60.79
2022-10-22T06:58:36.349Z,60.85
2022-10-22T07:01:02.818Z,60.72
2022-10-22T07:03:29.256Z,60.50
2022-10-22T07:05:55.695Z,60.63
2022-10-22T07:08:22.074Z,60.77
2022-10-22T07:10:48.445Z,60.65
2022-10-22T07:13:14.818Z,60.52
2022-10-22T07:15:41.173Z,61.05
2022-10-22T07:18:07.550Z,60.88
2022-10-22T07:20:33.905Z,60.46
2022-10-22T07:23:00.271Z,60.34
2022-10-22T07:25:26.750Z,60.62
2022-10-22T07:27:53.126Z,60.89
2022-10-22T07:30:19.494Z,61.08
2022-10-22T07:32:45.856Z,61.27
2022-10-22T07:35:12.225Z,61.89
2022-10-22T07:37:38.885Z,61.76
2022-10-22T07:40:05.489Z,61.37
2022-10-22T07:42:31.847Z,61.24
2022-10-22T07:44:58.211Z,61.97
2022-10-22T07:47:24.592Z,61.95
2022-10-22T07:49:50.949Z,62.21
2022-10-22T07:52:17.318Z,62.09
2022-10-22T07:54:43.680Z,62.19
2022-10-22T07:57:10.041Z,61.82
2022-10-22T07:59:36.405Z,61.66
2022-10-22T08:02:02.782Z,61.51
2022-10-22T08:04:29.171Z,61.11
2022-10-22T08:06:55.551Z,61.02
2022-10-22T08:09:21.926Z,61.33
2022-10-22T08:11:48.298Z,61.20
2022-10-22T08:14:14.677Z,60.90
2022-10-22T08:16:41.045Z,60.84
2022-10-22T08:19:07.415Z,60.76
2022-10-22T08:21:33.792Z,60.83
2022-10-22T08:24:00.204Z,61.06
2022-10-22T08:26:26.696Z,61.26
2022-10-22T08:28:53.072Z,61.39
2022-10-22T08:31:19.424Z,61.40
2022-10-22T08:33:45.799Z,61.32
2022-10-22T08:36:12.174Z,61.23
2022-10-22T08:38:38.529Z,61.54
2022-10-22T08:41:04.907Z,61.53
2022-10-22T08:43:31.295Z,61.26
2022-10-22T08:45:57.655Z,61.42
2022-10-22T08:48:24.021Z,61.44
2022-10-22T08:50:50.400Z,61.29
2022-10-22T08:53:16.773Z,61.29
2022-10-22T08:55:43.154Z,61.45
2022-10-22T08:58:09.549Z,61.48
2022-10-22T09:00:35.924Z,61.43
2022-10-22T09:03:02.298Z,61.42
2022-10-22T09:05:28.676Z,61.64
2022-10-22T09:07:55.044Z,61.90
2022-10-22T09:10:21.604Z,61.73
2022-10-22T09:12:47.964Z,61.80
2022-10-22T09:15:14.332Z,61.79
2022-10-22T09:17:41.081Z,61.86
2022-10-22T09:20:07.657Z,62.06
2022-10-22T09:25:01.611Z,61.91
2022-10-22T09:27:27.982Z,61.63
2022-10-22T09:29:54.374Z,61.62
2022-10-22T09:32:20.778Z,61.96
2022-10-22T09:34:47.154Z,62.75
2022-10-22T09:37:13.550Z,62.39
2022-10-22T09:39:39.917Z,62.12
2022-10-22T09:42:06.299Z,62.56
2022-10-22T09:44:32.689Z,63.07
2022-10-22T09:46:59.074Z,62.29
2022-10-22T09:49:25.452Z,62.54
2022-10-22T09:51:51.915Z,62.58
2022-10-22T09:54:18.293Z,62.62
2022-10-22T09:56:44.670Z,63.03
2022-10-22T09:59:11.040Z,64.24
2022-10-22T10:01:37.417Z,63.88
2022-10-22T10:04:08.400Z,62.70
2022-10-22T10:06:35.920Z,63.25
2022-10-22T10:09:02.335Z,63.51
2022-10-22T10:11:29.392Z,64.39
2022-10-22T10:13:55.968Z,64.53
2022-10-22T10:16:22.368Z,64.56
2022-10-22T10:18:48.741Z,64.35
2022-10-22T10:24:01.410Z,64.21
2022-10-22T10:26:27.779Z,63.80
2022-10-22T10:28:54.145Z,63.70
2022-10-22T10:31:20.525Z,63.83
2022-10-22T10:33:46.904Z,63.48
2022-10-22T10:36:13.276Z,63.50
2022-10-22T10:38:39.645Z,63.73
2022-10-22T10:41:06.019Z,63.72
2022-10-22T10:43:32.390Z,63.68
2022-10-22T10:45:58.769Z,63.38
2022-10-22T10:48:25.132Z,63.54
2022-10-22T10:50:51.512Z,64.00
2022-10-22T10:53:17.887Z,63.37
2022-10-22T10:55:44.274Z,63.75
2022-10-22T10:58:10.654Z,63.20
2022-10-22T11:00:37.027Z,63.36
2022-10-22T11:03:03.403Z,63.28
2022-10-22T11:05:29.783Z,63.17
2022-10-22T11:07:56.631Z,63.30
2022-10-22T11:10:23.271Z,63.37
2022-10-22T11:12:49.634Z,63.23
2022-10-22T11:15:16.006Z,63.60
2022-10-22T11:17:42.377Z,63.72
2022-10-22T11:20:08.748Z,64.01
2022-10-22T11:22:35.594Z,63.19
2022-10-22T11:25:01.975Z,62.63
2022-10-22T11:27:28.355Z,62.33
2022-10-22T11:29:54.722Z,62.20
2022-10-22T11:32:21.114Z,62.52
2022-10-22T11:34:47.502Z,63.19
2022-10-22T11:37:13.870Z,63.11
2022-10-22T11:39:40.244Z,63.46
2022-10-22T11:42:06.626Z,63.54
2022-10-22T11:44:33.089Z,62.88
2022-10-22T11:46:59.457Z,62.74
2022-10-22T11:49:25.825Z,62.72
2022-10-22T11:51:52.219Z,62.53
2022-10-22T11:54:18.584Z,62.29
2022-10-22T11:56:44.955Z,62.30
2022-10-22T11:59:11.338Z,62.29
2022-10-22T12:01:37.744Z,62.13
2022-10-22T12:04:04.183Z,62.49
2022-10-22T12:06:30.581Z,62.42
2022-10-22T12:08:56.984Z,62.30
2022-10-22T12:11:23.395Z,62.33
2022-10-22T12:13:49.786Z,62.31
2022-10-22T12:16:23.611Z,62.37
2022-10-22T12:19:02.534Z,62.23
2022-10-22T12:21:28.919Z,62.37
2022-10-22T12:23:55.294Z,62.54
2022-10-22T12:26:21.691Z,62.35
2022-10-22T12:28:48.138Z,62.36
2022-10-22T12:31:14.509Z,62.32
2022-10-22T12:33:40.877Z,62.31
2022-10-22T12:36:07.343Z,62.47
2022-10-22T12:38:33.742Z,62.41
2022-10-22T12:41:00.228Z,62.16
2022-10-22T12:43:26.617Z,62.97
2022-10-22T12:45:52.987Z,62.33
2022-10-22T12:48:19.366Z,62.38
2022-10-22T12:50:45.747Z,62.56
2022-10-22T12:53:12.142Z,62.53
2022-10-22T12:55:38.517Z,62.72
2022-10-22T12:58:04.898Z,62.67
2022-10-22T13:00:31.296Z,62.36
2022-10-22T13:02:57.773Z,62.35
2022-10-22T13:05:24.147Z,62.45
2022-10-22T13:07:50.519Z,62.70
2022-10-22T13:10:16.899Z,62.55
2022-10-22T13:12:43.487Z,62.46
2022-10-22T13:15:10.042Z,62.46
2022-10-22T13:17:36.422Z,62.72
2022-10-22T13:20:02.801Z,62.85
2022-10-22T13:22:29.168Z,62.33
2022-10-22T13:24:55.536Z,62.42
2022-10-22T13:27:21.921Z,62.42
2022-10-22T13:29:48.301Z,62.14
2022-10-22T13:32:14.679Z,62.31
2022-10-22T13:34:41.058Z,62.46
2022-10-22T13:37:07.430Z,62.38
2022-10-22T13:39:33.815Z,62.35
2022-10-22T13:42:00.183Z,62.23
2022-10-22T13:44:26.560Z,62.46
2022-10-22T13:46:52.937Z,62.46
2022-10-22T13:49:19.323Z,62.88
2022-10-22T13:51:45.710Z,62.60
2022-10-22T13:54:12.098Z,62.60
2022-10-22T13:56:38.485Z,62.94
2022-10-22T13:59:04.854Z,62.46
2022-10-22T14:01:31.217Z,62.77
2022-10-22T14:03:57.593Z,61.71
2022-10-22T14:06:24.101Z,61.98
2022-10-22T14:08:50.591Z,62.57
2022-10-22T14:11:17.022Z,62.39
2022-10-22T14:13:43.407Z,62.33
2022-10-22T14:16:09.772Z,62.36
2022-10-22T14:18:36.138Z,61.81
2022-10-22T14:21:02.522Z,61.49
2022-10-22T14:23:28.902Z,61.32
2022-10-22T14:25:55.268Z,61.70
2022-10-22T14:28:21.646Z,61.35
2022-10-22T14:30:48.018Z,61.41
2022-10-22T14:33:14.402Z,61.60
2022-10-22T14:35:40.772Z,61.58
2022-10-22T14:38:07.141Z,61.61
2022-10-22T14:40:33.520Z,61.55
2022-10-22T14:42:59.898Z,61.76
2022-10-22T14:45:26.274Z,61.80
2022-10-22T14:47:52.650Z,61.79
2022-10-22T14:50:19.029Z,61.91
2022-10-22T14:52:45.397Z,61.58
2022-10-22T14:55:11.767Z,61.77
2022-10-22T14:57:38.223Z,61.78
2022-10-22T15:00:04.676Z,62.06
2022-10-22T15:02:31.035Z,61.94
2022-10-22T15:07:43.952Z,62.30
2022-10-22T15:10:10.525Z,62.12
2022-10-22T15:12:36.904Z,61.94
2022-10-22T15:15:03.268Z,62.17
2022-10-22T15:17:29.648Z,62.41
2022-10-22T15:19:56.025Z,62.16
2022-10-22T15:22:22.399Z,62.49
2022-10-22T15:24:48.767Z,61.99
2022-10-22T15:27:15.125Z,62.54
2022-10-22T15:29:41.492Z,62.38
2022-10-22T15:32:07.865Z,62.25
2022-10-22T15:34:34.239Z,62.37
2022-10-22T15:37:00.623Z,62.09
2022-10-22T15:39:26.994Z,62.40
2022-10-22T15:41:53.378Z,62.49
2022-10-22T15:44:19.745Z,62.47
2022-10-22T15:46:46.178Z,62.65
2022-10-22T15:49:12.624Z,62.54
2022-10-22T15:51:38.996Z,62.35
2022-10-22T15:54:09.211Z,62.42
2022-10-22T15:56:36.479Z,62.25
2022-10-22T15:59:02.866Z,62.61
2022-10-22T16:01:29.284Z,62.25
2022-10-22T16:03:55.737Z,62.52
2022-10-22T16:06:22.109Z,62.88
2022-10-22T16:08:48.560Z,62.70
2022-10-22T16:11:14.948Z,62.48
2022-10-22T16:13:41.321Z,62.54
2022-10-22T16:16:07.690Z,62.25
2022-10-22T16:18:34.065Z,62.50
2022-10-22T16:21:00.458Z,62.29
2022-10-22T16:23:26.832Z,62.17
2022-10-22T16:25:53.201Z,62.19
2022-10-22T16:28:19.567Z,62.17
2022-10-22T16:30:45.942Z,62.13
2022-10-22T16:33:12.307Z,62.24
2022-10-22T16:35:38.690Z,63.09
2022-10-22T16:38:05.055Z,63.31
2022-10-22T16:40:31.423Z,62.95
2022-10-22T16:42:57.795Z,62.80
2022-10-22T16:45:24.174Z,62.72
2022-10-22T16:47:50.549Z,62.65
2022-10-22T16:50:16.926Z,62.73
2022-10-22T16:52:43.306Z,62.74
2022-10-22T16:55:09.667Z,62.80
2022-10-22T16:57:36.054Z,62.74
2022-10-22T17:00:02.430Z,62.89
2022-10-22T17:02:28.793Z,62.56
2022-10-22T17:04:55.165Z,62.93
2022-10-22T17:07:21.538Z,62.85
2022-10-22T17:09:47.912Z,63.02
2022-10-22T17:12:14.274Z,62.93
2022-10-22T17:14:40.642Z,63.04
2022-10-22T17:17:07.000Z,62.86
2022-10-22T17:19:33.364Z,63.06
2022-10-22T17:21:59.739Z,63.19
2022-10-22T17:24:26.110Z,62.89
2022-10-22T17:26:52.538Z,62.96
2022-10-22T17:29:18.912Z,62.80
2022-10-22T17:31:45.284Z,63.10
2022-10-22T17:34:11.653Z,63.01
2022-10-22T17:36:38.024Z,63.10
2022-10-22T17:39:04.386Z,63.21
2022-10-22T17:41:30.762Z,63.05
2022-10-22T17:43:57.149Z,62.76
2022-10-22T17:46:23.517Z,62.89
2022-10-22T17:48:49.881Z,63.20
2022-10-22T17:51:16.253Z,63.40
2022-10-22T17:53:42.628Z,63.16
2022-10-22T17:56:09.003Z,63.13
2022-10-22T17:58:35.465Z,63.19
2022-10-22T18:01:01.845Z,63.24
2022-10-22T18:03:28.273Z,63.06
2022-10-22T18:05:54.630Z,63.01
2022-10-22T18:08:21.012Z,63.25
2022-10-22T18:10:47.402Z,63.21
2022-10-22T18:13:13.768Z,63.25
2022-10-22T18:15:40.139Z,63.19
2022-10-22T18:18:06.521Z,63.35
2022-10-22T18:20:32.909Z,63.22
2022-10-22T18:22:59.270Z,63.33
2022-10-22T18:25:25.665Z,63.19
2022-10-22T18:27:52.078Z,63.04
2022-10-22T18:30:18.453Z,62.98
2022-10-22T18:32:44.840Z,63.22
2022-10-22T18:35:11.214Z,63.19
2022-10-22T18:37:37.585Z,63.27
2022-10-22T18:40:03.957Z,63.65
2022-10-22T18:42:32.879Z,63.60
2022-10-22T18:45:00.960Z,63.35
2022-10-22T18:47:27.318Z,63.23
2022-10-22T18:49:53.706Z,63.10
2022-10-22T18:52:20.081Z,63.02
2022-10-22T18:54:46.455Z,63.36
2022-10-22T18:57:12.826Z,63.49
2022-10-22T18:59:39.194Z,63.22
2022-10-22T19:02:05.572Z,63.57
2022-10-22T19:04:31.945Z,61.05
2022-10-22T19:06:58.445Z,60.35
2022-10-22T19:09:24.865Z,62.04
2022-10-22T19:11:51.234Z,61.14
2022-10-22T19:14:17.598Z,61.63
2022-10-22T19:16:43.969Z,62.87
2022-10-22T19:19:10.332Z,64.07
2022-10-22T19:21:36.709Z,63.97
2022-10-22T19:24:03.075Z,63.82
2022-10-22T19:26:29.453Z,63.65
2022-10-22T19:28:55.813Z,63.80
2022-10-22T19:31:22.199Z,63.97
2022-10-22T19:33:48.586Z,64.02
2022-10-22T19:36:14.955Z,64.00
2022-10-22T19:38:41.322Z,63.78
2022-10-22T19:41:07.688Z,63.79
2022-10-22T19:43:34.053Z,63.98
2022-10-22T19:46:00.422Z,63.80
2022-10-22T19:48:26.790Z,63.86
2022-10-22T19:50:53.165Z,63.73
2022-10-22T19:53:19.527Z,64.03
2022-10-22T19:55:45.902Z,63.76
2022-10-22T19:58:12.261Z,63.81
2022-10-22T20:00:38.629Z,64.04
2022-10-22T20:03:05.425Z,63.69
2022-10-22T20:05:31.791Z,63.95
2022-10-22T20:07:58.166Z,63.70
2022-10-22T20:10:24.516Z,63.64
2022-10-22T20:12:50.881Z,63.83
2022-10-22T20:15:17.250Z,63.81
2022-10-22T20:17:44.026Z,63.62
2022-10-22T20:20:10.567Z,63.80
2022-10-22T20:22:36.927Z,63.66
2022-10-22T20:25:03.290Z,63.75
2022-10-22T20:27:29.663Z,63.96
2022-10-22T20:29:56.029Z,64.01
2022-10-22T20:32:22.390Z,63.76
2022-10-22T20:34:48.765Z,63.78
2022-10-22T20:37:15.127Z,63.68
2022-10-22T20:39:41.480Z,63.80
2022-10-22T20:42:07.855Z,63.93
2022-10-22T20:44:34.217Z,63.98
2022-10-22T20:47:00.599Z,63.76
2022-10-22T20:49:26.955Z,63.75
2022-10-22T20:51:53.316Z,63.71
2022-10-22T20:54:19.682Z,63.81
2022-10-22T20:56:46.042Z,63.71
2022-10-22T20:59:15.172Z,63.74
2022-10-22T21:01:41.533Z,63.73
2022-10-22T21:04:07.916Z,63.50
2022-10-22T21:06:34.291Z,63.64
2022-10-22T21:09:00.739Z,63.47
2022-10-22T21:11:27.175Z,63.45
2022-10-22T21:13:53.542Z,63.60
2022-10-22T21:16:19.916Z,63.53
2022-10-22T21:18:46.296Z,63.46
2022-10-22T21:21:12.660Z,63.88
2022-10-22T21:23:39.025Z,63.75
2022-10-22T21:26:05.379Z,63.73
2022-10-22T21:28:31.752Z,63.85
2022-10-22T21:30:58.130Z,63.95
2022-10-22T21:33:24.496Z,64.05
2022-10-22T21:35:50.868Z,64.22
2022-10-22T21:38:17.283Z,64.09
2022-10-22T21:40:43.639Z,63.76
2022-10-22T21:43:10.009Z,63.40
2022-10-22T21:45:36.399Z,63.47
2022-10-22T21:48:02.764Z,63.76
2022-10-22T21:50:29.144Z,63.57
2022-10-22T21:52:55.512Z,63.82
2022-10-22T21:55:21.874Z,63.25
2022-10-22T21:57:48.296Z,63.16
2022-10-22T22:00:14.667Z,63.04
2022-10-22T22:02:41.246Z,62.96
2022-10-22T22:05:07.799Z,62.86
2022-10-22T22:07:34.169Z,62.81
2022-10-22T22:10:00.538Z,62.81
2022-10-22T22:12:26.922Z,62.62
2022-10-22T22:14:53.290Z,62.76
2022-10-22T22:17:19.653Z,62.66
2022-10-22T22:19:46.026Z,62.61
2022-10-22T22:22:12.386Z,62.69
2022-10-22T22:24:38.754Z,62.76
2022-10-22T22:27:05.120Z,62.50
2022-10-22T22:29:31.480Z,62.73
2022-10-22T22:31:57.848Z,62.65
2022-10-22T22:34:24.209Z,62.82
2022-10-22T22:36:50.576Z,62.92
2022-10-22T22:39:16.951Z,62.87
2022-10-22T22:41:43.313Z,62.96
2022-10-22T22:44:09.766Z,62.94
2022-10-22T22:46:36.120Z,63.13
2022-10-22T22:49:02.494Z,62.86
2022-10-22T22:51:28.864Z,63.00
2022-10-22T22:53:55.298Z,62.94
2022-10-22T22:56:21.665Z,63.01
2022-10-22T22:58:48.077Z,63.10
2022-10-22T23:01:14.448Z,62.99
2022-10-22T23:03:40.837Z,62.96
2022-10-22T23:06:07.222Z,62.97
2022-10-22T23:08:33.651Z,62.99
2022-10-22T23:11:00.035Z,63.18
2022-10-22T23:13:26.408Z,63.26
2022-10-22T23:15:52.768Z,63.11
2022-10-22T23:18:19.148Z,63.17
2022-10-22T23:20:45.514Z,63.22
2022-10-22T23:23:11.876Z,63.30
2022-10-22T23:25:38.244Z,63.15
2022-10-22T23:28:04.607Z,63.22
2022-10-22T23:30:31.213Z,63.20
2022-10-22T23:32:57.627Z,63.35
2022-10-22T23:35:24.002Z,63.14
2022-10-22T23:37:50.378Z,63.01
2022-10-22T23:40:16.754Z,63.04
2022-10-22T23:42:43.114Z,63.14
2022-10-22T23:45:09.481Z,63.14
2022-10-22T23:47:35.844Z,63.28
2022-10-22T23:50:02.248Z,63.17
2022-10-22T23:52:28.621Z,63.23
2022-10-22T23:54:54.985Z,63.03
2022-10-22T23:57:21.348Z,63.11
2022-10-22T23:59:47.717Z,62.99
